sensor_id;sensor_type;location;lat;lon;timestamp;P1;durP1;ratioP1;P2;durP2;ratioP2
20397;SDS011;10358;49.590;11.030;2024-03-02T00:00:22;42.57;;;20.50;;
20397;SDS011;10358;49.590;11.030;2024-03-02T00:02:49;38.87;;;20.40;;
20397;SDS011;10358;49.590;11.030;2024-03-02T00:05:18;38.07;;;20.40;;
20397;SDS011;10358;49.590;11.030;2024-03-02T00:07:46;42.27;;;21.50;;
20397;SDS011;10358;49.590;11.030;2024-03-02T00:10:19;46.00;;;20.50;;
20397;SDS011;10358;49.590;11.030;2024-03-02T00:12:48;43.03;;;21.37;;
20397;SDS011;10358;49.590;11.030;2024-03-02T00:18:04;45.23;;;20.77;;
20397;SDS011;10358;49.590;11.030;2024-03-02T00:20:30;41.00;;;20.43;;
20397;SDS011;10358;49.590;11.030;2024-03-02T00:23:02;39.37;;;20.63;;
20397;SDS011;10358;49.590;11.030;2024-03-02T00:25:39;42.63;;;21.10;;
20397;SDS011;10358;49.590;11.030;2024-03-02T00:28:13;41.43;;;21.83;;
20397;SDS011;10358;49.590;11.030;2024-03-02T00:30:54;41.23;;;21.30;;
20397;SDS011;10358;49.590;11.030;2024-03-02T00:33:40;40.77;;;19.73;;
20397;SDS011;10358;49.590;11.030;2024-03-02T00:36:07;37.80;;;20.57;;
20397;SDS011;10358;49.590;11.030;2024-03-02T00:38:33;41.17;;;20.73;;
20397;SDS011;10358;49.590;11.030;2024-03-02T00:41:01;41.73;;;21.60;;
20397;SDS011;10358;49.590;11.030;2024-03-02T00:43:42;51.23;;;22.23;;
20397;SDS011;10358;49.590;11.030;2024-03-02T00:46:12;42.50;;;21.50;;
20397;SDS011;10358;49.590;11.030;2024-03-02T00:48:41;41.93;;;21.90;;
20397;SDS011;10358;49.590;11.030;2024-03-02T00:51:15;42.40;;;21.60;;
20397;SDS011;10358;49.590;11.030;2024-03-02T00:53:41;43.90;;;21.67;;
20397;SDS011;10358;49.590;11.030;2024-03-02T00:56:09;38.87;;;20.90;;
20397;SDS011;10358;49.590;11.030;2024-03-02T00:58:36;44.53;;;21.03;;
20397;SDS011;10358;49.590;11.030;2024-03-02T01:01:01;42.60;;;21.40;;
20397;SDS011;10358;49.590;11.030;2024-03-02T01:03:27;40.13;;;20.97;;
20397;SDS011;10358;49.590;11.030;2024-03-02T01:05:52;37.23;;;19.67;;
20397;SDS011;10358;49.590;11.030;2024-03-02T01:08:18;40.93;;;21.30;;
20397;SDS011;10358;49.590;11.030;2024-03-02T01:10:44;43.27;;;20.80;;
20397;SDS011;10358;49.590;11.030;2024-03-02T01:13:09;39.60;;;19.53;;
20397;SDS011;10358;49.590;11.030;2024-03-02T01:15:35;43.63;;;21.30;;
20397;SDS011;10358;49.590;11.030;2024-03-02T01:18:00;43.53;;;20.90;;
20397;SDS011;10358;49.590;11.030;2024-03-02T01:20:26;43.87;;;22.43;;
20397;SDS011;10358;49.590;11.030;2024-03-02T01:22:52;45.73;;;22.60;;
20397;SDS011;10358;49.590;11.030;2024-03-02T01:25:18;46.93;;;22.13;;
20397;SDS011;10358;49.590;11.030;2024-03-02T01:27:43;45.07;;;22.67;;
20397;SDS011;10358;49.590;11.030;2024-03-02T01:30:09;43.50;;;21.97;;
20397;SDS011;10358;49.590;11.030;2024-03-02T01:32:37;43.00;;;21.90;;
20397;SDS011;10358;49.590;11.030;2024-03-02T01:35:03;41.43;;;21.40;;
20397;SDS011;10358;49.590;11.030;2024-03-02T01:37:29;40.60;;;20.80;;
20397;SDS011;10358;49.590;11.030;2024-03-02T01:39:55;39.30;;;20.30;;
20397;SDS011;10358;49.590;11.030;2024-03-02T01:42:21;40.03;;;20.53;;
20397;SDS011;10358;49.590;11.030;2024-03-02T01:44:47;44.50;;;21.83;;
20397;SDS011;10358;49.590;11.030;2024-03-02T01:47:13;43.40;;;21.80;;
20397;SDS011;10358;49.590;11.030;2024-03-02T01:49:38;43.47;;;22.17;;
20397;SDS011;10358;49.590;11.030;2024-03-02T01:52:05;47.43;;;22.00;;
20397;SDS011;10358;49.590;11.030;2024-03-02T01:54:31;42.57;;;22.37;;
20397;SDS011;10358;49.590;11.030;2024-03-02T01:56:57;44.33;;;22.30;;
20397;SDS011;10358;49.590;11.030;2024-03-02T01:59:23;42.33;;;22.07;;
20397;SDS011;10358;49.590;11.030;2024-03-02T02:01:49;47.63;;;22.77;;
20397;SDS011;10358;49.590;11.030;2024-03-02T02:04:14;51.20;;;23.20;;
20397;SDS011;10358;49.590;11.030;2024-03-02T02:06:40;46.00;;;22.33;;
20397;SDS011;10358;49.590;11.030;2024-03-02T02:09:06;47.63;;;22.07;;
20397;SDS011;10358;49.590;11.030;2024-03-02T02:11:33;40.50;;;21.50;;
20397;SDS011;10358;49.590;11.030;2024-03-02T02:13:59;43.30;;;22.47;;
20397;SDS011;10358;49.590;11.030;2024-03-02T02:16:25;42.50;;;21.07;;
20397;SDS011;10358;49.590;11.030;2024-03-02T02:18:50;45.10;;;22.13;;
20397;SDS011;10358;49.590;11.030;2024-03-02T02:21:16;47.90;;;22.73;;
20397;SDS011;10358;49.590;11.030;2024-03-02T02:23:41;46.67;;;22.63;;
20397;SDS011;10358;49.590;11.030;2024-03-02T02:26:11;42.90;;;21.37;;
20397;SDS011;10358;49.590;11.030;2024-03-02T02:28:37;39.67;;;21.27;;
20397;SDS011;10358;49.590;11.030;2024-03-02T02:31:02;47.33;;;21.63;;
20397;SDS011;10358;49.590;11.030;2024-03-02T02:33:28;41.70;;;21.60;;
20397;SDS011;10358;49.590;11.030;2024-03-02T02:35:54;43.33;;;21.77;;
20397;SDS011;10358;49.590;11.030;2024-03-02T02:38:19;43.57;;;20.90;;
20397;SDS011;10358;49.590;11.030;2024-03-02T02:40:45;47.13;;;22.67;;
20397;SDS011;10358;49.590;11.030;2024-03-02T02:43:10;40.67;;;21.03;;
20397;SDS011;10358;49.590;11.030;2024-03-02T02:45:37;46.67;;;21.83;;
20397;SDS011;10358;49.590;11.030;2024-03-02T02:48:02;40.40;;;21.30;;
20397;SDS011;10358;49.590;11.030;2024-03-02T02:50:28;44.83;;;21.27;;
20397;SDS011;10358;49.590;11.030;2024-03-02T02:52:54;47.37;;;22.03;;
20397;SDS011;10358;49.590;11.030;2024-03-02T02:55:19;44.57;;;22.10;;
20397;SDS011;10358;49.590;11.030;2024-03-02T02:57:45;42.57;;;20.67;;
20397;SDS011;10358;49.590;11.030;2024-03-02T03:00:12;44.60;;;21.57;;
20397;SDS011;10358;49.590;11.030;2024-03-02T03:02:43;43.70;;;22.27;;
20397;SDS011;10358;49.590;11.030;2024-03-02T03:05:10;48.80;;;23.60;;
20397;SDS011;10358;49.590;11.030;2024-03-02T03:07:37;49.10;;;22.43;;
20397;SDS011;10358;49.590;11.030;2024-03-02T03:10:04;48.27;;;22.10;;
20397;SDS011;10358;49.590;11.030;2024-03-02T03:12:31;51.60;;;24.00;;
20397;SDS011;10358;49.590;11.030;2024-03-02T03:14:57;47.67;;;23.53;;
20397;SDS011;10358;49.590;11.030;2024-03-02T03:17:23;45.77;;;24.07;;
20397;SDS011;10358;49.590;11.030;2024-03-02T03:19:49;47.43;;;23.57;;
20397;SDS011;10358;49.590;11.030;2024-03-02T03:22:15;49.60;;;23.23;;
20397;SDS011;10358;49.590;11.030;2024-03-02T03:24:40;50.80;;;24.40;;
20397;SDS011;10358;49.590;11.030;2024-03-02T03:27:06;48.30;;;23.40;;
20397;SDS011;10358;49.590;11.030;2024-03-02T03:29:32;54.03;;;24.27;;
20397;SDS011;10358;49.590;11.030;2024-03-02T03:31:57;51.60;;;24.13;;
20397;SDS011;10358;49.590;11.030;2024-03-02T03:34:23;48.80;;;24.63;;
20397;SDS011;10358;49.590;11.030;2024-03-02T03:36:48;49.23;;;24.47;;
20397;SDS011;10358;49.590;11.030;2024-03-02T03:39:14;56.90;;;25.77;;
20397;SDS011;10358;49.590;11.030;2024-03-02T03:41:40;54.47;;;25.17;;
20397;SDS011;10358;49.590;11.030;2024-03-02T03:44:05;57.13;;;25.57;;
20397;SDS011;10358;49.590;11.030;2024-03-02T03:46:31;50.37;;;26.23;;
20397;SDS011;10358;49.590;11.030;2024-03-02T03:48:56;55.83;;;25.23;;
20397;SDS011;10358;49.590;11.030;2024-03-02T03:51:22;55.40;;;25.33;;
20397;SDS011;10358;49.590;11.030;2024-03-02T03:53:48;51.63;;;24.27;;
20397;SDS011;10358;49.590;11.030;2024-03-02T03:56:13;57.43;;;25.67;;
20397;SDS011;10358;49.590;11.030;2024-03-02T03:58:39;47.13;;;23.57;;
20397;SDS011;10358;49.590;11.030;2024-03-02T04:01:04;53.90;;;24.20;;
20397;SDS011;10358;49.590;11.030;2024-03-02T04:03:30;51.13;;;24.40;;
20397;SDS011;10358;49.590;11.030;2024-03-02T04:05:57;53.60;;;23.87;;
20397;SDS011;10358;49.590;11.030;2024-03-02T04:08:22;54.57;;;24.47;;
20397;SDS011;10358;49.590;11.030;2024-03-02T04:10:48;47.33;;;23.30;;
20397;SDS011;10358;49.590;11.030;2024-03-02T04:13:14;49.50;;;24.13;;
20397;SDS011;10358;49.590;11.030;2024-03-02T04:15:39;51.23;;;24.03;;
20397;SDS011;10358;49.590;11.030;2024-03-02T04:18:05;49.37;;;23.43;;
20397;SDS011;10358;49.590;11.030;2024-03-02T04:20:31;53.87;;;24.97;;
20397;SDS011;10358;49.590;11.030;2024-03-02T04:22:57;51.73;;;24.70;;
20397;SDS011;10358;49.590;11.030;2024-03-02T04:25:22;51.00;;;24.20;;
20397;SDS011;10358;49.590;11.030;2024-03-02T04:27:48;55.93;;;24.20;;
20397;SDS011;10358;49.590;11.030;2024-03-02T04:30:13;52.33;;;23.83;;
20397;SDS011;10358;49.590;11.030;2024-03-02T04:32:40;56.80;;;25.20;;
20397;SDS011;10358;49.590;11.030;2024-03-02T04:35:06;55.30;;;25.00;;
20397;SDS011;10358;49.590;11.030;2024-03-02T04:37:35;55.83;;;24.63;;
20397;SDS011;10358;49.590;11.030;2024-03-02T04:40:01;55.07;;;23.77;;
20397;SDS011;10358;49.590;11.030;2024-03-02T04:42:26;54.83;;;24.80;;
20397;SDS011;10358;49.590;11.030;2024-03-02T04:44:52;53.90;;;24.37;;
20397;SDS011;10358;49.590;11.030;2024-03-02T04:47:17;52.57;;;24.40;;
20397;SDS011;10358;49.590;11.030;2024-03-02T04:49:43;49.67;;;23.50;;
20397;SDS011;10358;49.590;11.030;2024-03-02T04:52:09;53.00;;;23.77;;
20397;SDS011;10358;49.590;11.030;2024-03-02T04:54:34;52.27;;;23.43;;
20397;SDS011;10358;49.590;11.030;2024-03-02T04:57:23;44.80;;;22.20;;
20397;SDS011;10358;49.590;11.030;2024-03-02T04:59:48;49.03;;;21.97;;
20397;SDS011;10358;49.590;11.030;2024-03-02T05:02:14;48.60;;;21.90;;
20397;SDS011;10358;49.590;11.030;2024-03-02T05:04:40;52.07;;;22.70;;
20397;SDS011;10358;49.590;11.030;2024-03-02T05:07:08;44.53;;;21.10;;
20397;SDS011;10358;49.590;11.030;2024-03-02T05:09:33;49.03;;;22.90;;
20397;SDS011;10358;49.590;11.030;2024-03-02T05:12:00;51.30;;;21.77;;
20397;SDS011;10358;49.590;11.030;2024-03-02T05:14:45;47.37;;;21.33;;
20397;SDS011;10358;49.590;11.030;2024-03-02T05:17:11;49.40;;;22.63;;
20397;SDS011;10358;49.590;11.030;2024-03-02T05:19:38;40.20;;;21.00;;
20397;SDS011;10358;49.590;11.030;2024-03-02T05:22:03;43.17;;;19.93;;
20397;SDS011;10358;49.590;11.030;2024-03-02T05:24:29;43.73;;;20.70;;
20397;SDS011;10358;49.590;11.030;2024-03-02T05:26:55;46.83;;;21.70;;
20397;SDS011;10358;49.590;11.030;2024-03-02T05:29:20;44.43;;;21.00;;
20397;SDS011;10358;49.590;11.030;2024-03-02T05:31:46;43.50;;;20.20;;
20397;SDS011;10358;49.590;11.030;2024-03-02T05:34:12;42.40;;;19.77;;
20397;SDS011;10358;49.590;11.030;2024-03-02T05:36:37;42.47;;;21.03;;
20397;SDS011;10358;49.590;11.030;2024-03-02T05:39:04;43.43;;;21.03;;
20397;SDS011;10358;49.590;11.030;2024-03-02T05:41:33;44.13;;;20.93;;
20397;SDS011;10358;49.590;11.030;2024-03-02T05:43:59;46.23;;;20.97;;
20397;SDS011;10358;49.590;11.030;2024-03-02T05:46:27;44.60;;;21.17;;
20397;SDS011;10358;49.590;11.030;2024-03-02T05:48:52;49.37;;;21.80;;
20397;SDS011;10358;49.590;11.030;2024-03-02T05:51:19;46.80;;;20.23;;
20397;SDS011;10358;49.590;11.030;2024-03-02T05:53:45;46.53;;;21.57;;
20397;SDS011;10358;49.590;11.030;2024-03-02T05:56:11;45.27;;;21.03;;
20397;SDS011;10358;49.590;11.030;2024-03-02T05:58:37;44.47;;;20.20;;
20397;SDS011;10358;49.590;11.030;2024-03-02T06:01:22;44.60;;;20.57;;
20397;SDS011;10358;49.590;11.030;2024-03-02T06:03:53;47.63;;;21.23;;
20397;SDS011;10358;49.590;11.030;2024-03-02T06:06:22;45.33;;;20.43;;
20397;SDS011;10358;49.590;11.030;2024-03-02T06:08:48;41.90;;;20.93;;
20397;SDS011;10358;49.590;11.030;2024-03-02T06:11:13;49.47;;;21.50;;
20397;SDS011;10358;49.590;11.030;2024-03-02T06:13:39;49.03;;;20.93;;
20397;SDS011;10358;49.590;11.030;2024-03-02T06:16:04;50.63;;;21.30;;
20397;SDS011;10358;49.590;11.030;2024-03-02T06:18:30;50.13;;;20.97;;
20397;SDS011;10358;49.590;11.030;2024-03-02T06:20:56;45.50;;;21.03;;
20397;SDS011;10358;49.590;11.030;2024-03-02T06:23:21;44.13;;;19.47;;
20397;SDS011;10358;49.590;11.030;2024-03-02T06:25:47;48.17;;;21.67;;
20397;SDS011;10358;49.590;11.030;2024-03-02T06:28:12;49.20;;;21.47;;
20397;SDS011;10358;49.590;11.030;2024-03-02T06:30:40;47.37;;;20.87;;
20397;SDS011;10358;49.590;11.030;2024-03-02T06:33:08;49.77;;;20.83;;
20397;SDS011;10358;49.590;11.030;2024-03-02T06:35:34;44.63;;;20.57;;
20397;SDS011;10358;49.590;11.030;2024-03-02T06:38:00;46.40;;;20.33;;
20397;SDS011;10358;49.590;11.030;2024-03-02T06:40:26;42.93;;;20.80;;
20397;SDS011;10358;49.590;11.030;2024-03-02T06:42:51;40.77;;;20.10;;
20397;SDS011;10358;49.590;11.030;2024-03-02T06:45:17;45.73;;;21.70;;
20397;SDS011;10358;49.590;11.030;2024-03-02T06:47:42;44.50;;;20.73;;
20397;SDS011;10358;49.590;11.030;2024-03-02T06:50:08;42.03;;;20.37;;
20397;SDS011;10358;49.590;11.030;2024-03-02T06:52:34;39.07;;;20.00;;
20397;SDS011;10358;49.590;11.030;2024-03-02T06:55:00;41.10;;;19.83;;
20397;SDS011;10358;49.590;11.030;2024-03-02T06:57:26;41.63;;;19.83;;
20397;SDS011;10358;49.590;11.030;2024-03-02T06:59:51;43.57;;;19.63;;
20397;SDS011;10358;49.590;11.030;2024-03-02T07:02:22;38.03;;;19.33;;
20397;SDS011;10358;49.590;11.030;2024-03-02T07:04:48;39.77;;;19.30;;
20397;SDS011;10358;49.590;11.030;2024-03-02T07:07:13;43.53;;;19.40;;
20397;SDS011;10358;49.590;11.030;2024-03-02T07:09:40;41.00;;;20.23;;
20397;SDS011;10358;49.590;11.030;2024-03-02T07:12:06;39.00;;;19.10;;
20397;SDS011;10358;49.590;11.030;2024-03-02T07:14:32;40.77;;;19.70;;
20397;SDS011;10358;49.590;11.030;2024-03-02T07:17:16;40.20;;;19.33;;
20397;SDS011;10358;49.590;11.030;2024-03-02T07:19:41;40.10;;;18.73;;
20397;SDS011;10358;49.590;11.030;2024-03-02T07:22:07;38.43;;;19.13;;
20397;SDS011;10358;49.590;11.030;2024-03-02T07:24:40;35.13;;;17.83;;
20397;SDS011;10358;49.590;11.030;2024-03-02T07:27:06;37.03;;;18.57;;
20397;SDS011;10358;49.590;11.030;2024-03-02T07:29:33;38.23;;;19.23;;
20397;SDS011;10358;49.590;11.030;2024-03-02T07:31:58;33.30;;;17.77;;
20397;SDS011;10358;49.590;11.030;2024-03-02T07:34:25;33.93;;;17.83;;
20397;SDS011;10358;49.590;11.030;2024-03-02T07:36:51;33.03;;;16.97;;
20397;SDS011;10358;49.590;11.030;2024-03-02T07:39:16;32.97;;;17.40;;
20397;SDS011;10358;49.590;11.030;2024-03-02T07:41:42;31.33;;;16.40;;
20397;SDS011;10358;49.590;11.030;2024-03-02T07:44:08;32.43;;;17.37;;
20397;SDS011;10358;49.590;11.030;2024-03-02T07:46:39;31.57;;;16.97;;
20397;SDS011;10358;49.590;11.030;2024-03-02T07:49:05;34.60;;;17.13;;
20397;SDS011;10358;49.590;11.030;2024-03-02T07:51:31;29.73;;;16.53;;
20397;SDS011;10358;49.590;11.030;2024-03-02T07:53:56;27.37;;;15.30;;
20397;SDS011;10358;49.590;11.030;2024-03-02T07:56:22;27.30;;;15.23;;
20397;SDS011;10358;49.590;11.030;2024-03-02T07:58:50;30.27;;;15.87;;
20397;SDS011;10358;49.590;11.030;2024-03-02T08:01:16;28.07;;;15.27;;
20397;SDS011;10358;49.590;11.030;2024-03-02T08:03:42;32.20;;;16.53;;
20397;SDS011;10358;49.590;11.030;2024-03-02T08:06:12;27.33;;;16.03;;
20397;SDS011;10358;49.590;11.030;2024-03-02T08:08:41;26.93;;;15.37;;
20397;SDS011;10358;49.590;11.030;2024-03-02T08:11:07;24.53;;;14.83;;
20397;SDS011;10358;49.590;11.030;2024-03-02T08:13:32;28.00;;;14.87;;
20397;SDS011;10358;49.590;11.030;2024-03-02T08:15:58;25.77;;;14.57;;
20397;SDS011;10358;49.590;11.030;2024-03-02T08:18:24;24.60;;;14.30;;
20397;SDS011;10358;49.590;11.030;2024-03-02T08:20:49;24.00;;;14.23;;
20397;SDS011;10358;49.590;11.030;2024-03-02T08:23:15;27.33;;;15.40;;
20397;SDS011;10358;49.590;11.030;2024-03-02T08:25:41;26.67;;;14.70;;
20397;SDS011;10358;49.590;11.030;2024-03-02T08:28:07;24.10;;;13.97;;
20397;SDS011;10358;49.590;11.030;2024-03-02T08:30:32;23.63;;;13.67;;
20397;SDS011;10358;49.590;11.030;2024-03-02T08:32:59;25.93;;;14.37;;
20397;SDS011;10358;49.590;11.030;2024-03-02T08:35:25;24.43;;;14.13;;
20397;SDS011;10358;49.590;11.030;2024-03-02T08:37:51;23.37;;;13.97;;
20397;SDS011;10358;49.590;11.030;2024-03-02T08:40:16;24.97;;;14.60;;
20397;SDS011;10358;49.590;11.030;2024-03-02T08:42:42;24.40;;;14.40;;
20397;SDS011;10358;49.590;11.030;2024-03-02T08:45:08;26.30;;;14.00;;
20397;SDS011;10358;49.590;11.030;2024-03-02T08:47:34;25.77;;;14.37;;
20397;SDS011;10358;49.590;11.030;2024-03-02T08:49:59;22.77;;;12.70;;
20397;SDS011;10358;49.590;11.030;2024-03-02T08:52:26;23.33;;;13.93;;
20397;SDS011;10358;49.590;11.030;2024-03-02T08:54:52;23.33;;;14.13;;
20397;SDS011;10358;49.590;11.030;2024-03-02T08:57:17;21.70;;;12.83;;
20397;SDS011;10358;49.590;11.030;2024-03-02T08:59:43;24.07;;;13.20;;
20397;SDS011;10358;49.590;11.030;2024-03-02T09:02:09;23.20;;;13.67;;
20397;SDS011;10358;49.590;11.030;2024-03-02T09:04:36;21.27;;;12.27;;
20397;SDS011;10358;49.590;11.030;2024-03-02T09:07:02;18.90;;;11.80;;
20397;SDS011;10358;49.590;11.030;2024-03-02T09:09:28;20.33;;;11.90;;
20397;SDS011;10358;49.590;11.030;2024-03-02T09:11:53;18.20;;;11.73;;
20397;SDS011;10358;49.590;11.030;2024-03-02T09:14:22;20.63;;;12.20;;
20397;SDS011;10358;49.590;11.030;2024-03-02T09:16:48;17.43;;;10.60;;
20397;SDS011;10358;49.590;11.030;2024-03-02T09:19:14;16.07;;;10.33;;
20397;SDS011;10358;49.590;11.030;2024-03-02T09:21:39;17.77;;;10.47;;
20397;SDS011;10358;49.590;11.030;2024-03-02T09:24:06;18.70;;;10.77;;
20397;SDS011;10358;49.590;11.030;2024-03-02T09:26:32;15.17;;;9.70;;
20397;SDS011;10358;49.590;11.030;2024-03-02T09:28:57;17.67;;;10.10;;
20397;SDS011;10358;49.590;11.030;2024-03-02T09:31:23;16.00;;;9.20;;
20397;SDS011;10358;49.590;11.030;2024-03-02T09:33:48;13.63;;;8.50;;
20397;SDS011;10358;49.590;11.030;2024-03-02T09:36:17;13.33;;;8.17;;
20397;SDS011;10358;49.590;11.030;2024-03-02T09:38:43;16.60;;;7.93;;
20397;SDS011;10358;49.590;11.030;2024-03-02T09:41:09;11.50;;;7.20;;
20397;SDS011;10358;49.590;11.030;2024-03-02T09:43:35;11.90;;;7.77;;
20397;SDS011;10358;49.590;11.030;2024-03-02T09:46:01;12.50;;;7.87;;
20397;SDS011;10358;49.590;11.030;2024-03-02T09:48:26;12.07;;;6.80;;
20397;SDS011;10358;49.590;11.030;2024-03-02T09:50:52;11.67;;;7.30;;
20397;SDS011;10358;49.590;11.030;2024-03-02T09:53:18;11.17;;;6.60;;
20397;SDS011;10358;49.590;11.030;2024-03-02T09:55:46;10.93;;;6.90;;
20397;SDS011;10358;49.590;11.030;2024-03-02T09:58:12;9.50;;;6.10;;
20397;SDS011;10358;49.590;11.030;2024-03-02T10:00:38;9.80;;;6.30;;
20397;SDS011;10358;49.590;11.030;2024-03-02T10:03:03;9.40;;;6.10;;
20397;SDS011;10358;49.590;11.030;2024-03-02T10:05:32;8.53;;;6.10;;
20397;SDS011;10358;49.590;11.030;2024-03-02T10:08:01;9.83;;;6.00;;
20397;SDS011;10358;49.590;11.030;2024-03-02T10:10:37;9.60;;;5.83;;
20397;SDS011;10358;49.590;11.030;2024-03-02T10:13:07;9.67;;;5.73;;
20397;SDS011;10358;49.590;11.030;2024-03-02T10:15:33;8.55;;;5.60;;
20397;SDS011;10358;49.590;11.030;2024-03-02T10:17:59;9.98;;;6.05;;
20397;SDS011;10358;49.590;11.030;2024-03-02T10:20:25;10.48;;;6.95;;
20397;SDS011;10358;49.590;11.030;2024-03-02T10:22:54;10.07;;;6.47;;
20397;SDS011;10358;49.590;11.030;2024-03-02T10:27:59;8.68;;;5.88;;
20397;SDS011;10358;49.590;11.030;2024-03-02T10:30:25;9.40;;;6.03;;
20397;SDS011;10358;49.590;11.030;2024-03-02T10:32:52;8.73;;;5.82;;
20397;SDS011;10358;49.590;11.030;2024-03-02T10:35:22;8.77;;;5.70;;
20397;SDS011;10358;49.590;11.030;2024-03-02T10:37:51;10.45;;;5.88;;
20397;SDS011;10358;49.590;11.030;2024-03-02T10:40:17;8.63;;;5.70;;
20397;SDS011;10358;49.590;11.030;2024-03-02T10:42:46;10.55;;;5.75;;
20397;SDS011;10358;49.590;11.030;2024-03-02T10:45:15;10.15;;;6.30;;
20397;SDS011;10358;49.590;11.030;2024-03-02T10:47:41;9.02;;;6.18;;
20397;SDS011;10358;49.590;11.030;2024-03-02T10:50:09;11.77;;;6.43;;
20397;SDS011;10358;49.590;11.030;2024-03-02T10:52:35;8.77;;;6.35;;
20397;SDS011;10358;49.590;11.030;2024-03-02T10:55:04;9.80;;;6.78;;
20397;SDS011;10358;49.590;11.030;2024-03-02T10:57:36;10.10;;;6.40;;
20397;SDS011;10358;49.590;11.030;2024-03-02T11:00:07;9.73;;;6.32;;
20397;SDS011;10358;49.590;11.030;2024-03-02T11:02:40;9.65;;;6.55;;
20397;SDS011;10358;49.590;11.030;2024-03-02T11:05:19;8.90;;;6.22;;
20397;SDS011;10358;49.590;11.030;2024-03-02T11:07:57;9.35;;;6.35;;
20397;SDS011;10358;49.590;11.030;2024-03-02T11:10:33;8.15;;;5.47;;
20397;SDS011;10358;49.590;11.030;2024-03-02T11:13:02;7.60;;;5.40;;
20397;SDS011;10358;49.590;11.030;2024-03-02T11:15:30;8.90;;;5.80;;
20397;SDS011;10358;49.590;11.030;2024-03-02T11:17:59;8.82;;;5.85;;
20397;SDS011;10358;49.590;11.030;2024-03-02T11:20:25;11.30;;;6.68;;
20397;SDS011;10358;49.590;11.030;2024-03-02T11:22:51;9.27;;;6.15;;
20397;SDS011;10358;49.590;11.030;2024-03-02T11:25:27;7.68;;;5.93;;
20397;SDS011;10358;49.590;11.030;2024-03-02T11:32:59;9.35;;;6.57;;
20397;SDS011;10358;49.590;11.030;2024-03-02T11:35:36;9.45;;;6.63;;
20397;SDS011;10358;49.590;11.030;2024-03-02T11:38:03;9.20;;;6.18;;
20397;SDS011;10358;49.590;11.030;2024-03-02T11:40:29;8.93;;;5.68;;
20397;SDS011;10358;49.590;11.030;2024-03-02T11:42:56;10.00;;;6.10;;
20397;SDS011;10358;49.590;11.030;2024-03-02T11:45:25;9.77;;;6.50;;
20397;SDS011;10358;49.590;11.030;2024-03-02T11:47:55;9.82;;;6.57;;
20397;SDS011;10358;49.590;11.030;2024-03-02T11:50:35;12.93;;;7.07;;
20397;SDS011;10358;49.590;11.030;2024-03-02T11:53:05;11.18;;;7.63;;
20397;SDS011;10358;49.590;11.030;2024-03-02T11:55:34;10.30;;;6.93;;
20397;SDS011;10358;49.590;11.030;2024-03-02T11:58:01;10.82;;;7.28;;
20397;SDS011;10358;49.590;11.030;2024-03-02T12:00:28;13.02;;;7.95;;
20397;SDS011;10358;49.590;11.030;2024-03-02T12:03:01;11.77;;;7.72;;
20397;SDS011;10358;49.590;11.030;2024-03-02T12:05:29;13.15;;;8.70;;
20397;SDS011;10358;49.590;11.030;2024-03-02T12:07:59;12.10;;;8.57;;
20397;SDS011;10358;49.590;11.030;2024-03-02T12:10:27;9.73;;;6.80;;
20397;SDS011;10358;49.590;11.030;2024-03-02T12:13:03;8.70;;;6.13;;
20397;SDS011;10358;49.590;11.030;2024-03-02T12:15:32;9.30;;;5.47;;
20397;SDS011;10358;49.590;11.030;2024-03-02T12:18:00;7.93;;;5.47;;
20397;SDS011;10358;49.590;11.030;2024-03-02T12:20:27;10.23;;;5.50;;
20397;SDS011;10358;49.590;11.030;2024-03-02T12:22:55;9.85;;;5.82;;
20397;SDS011;10358;49.590;11.030;2024-03-02T12:25:23;10.73;;;6.20;;
20397;SDS011;10358;49.590;11.030;2024-03-02T12:27:50;11.27;;;6.07;;
20397;SDS011;10358;49.590;11.030;2024-03-02T12:30:17;11.00;;;5.78;;
20397;SDS011;10358;49.590;11.030;2024-03-02T12:32:45;9.73;;;5.88;;
20397;SDS011;10358;49.590;11.030;2024-03-02T12:35:11;10.15;;;6.82;;
20397;SDS011;10358;49.590;11.030;2024-03-02T12:37:58;13.60;;;6.13;;
20397;SDS011;10358;49.590;11.030;2024-03-02T12:40:27;11.20;;;6.97;;
20397;SDS011;10358;49.590;11.030;2024-03-02T12:42:52;10.10;;;6.90;;
20397;SDS011;10358;49.590;11.030;2024-03-02T12:45:18;9.95;;;7.05;;
20397;SDS011;10358;49.590;11.030;2024-03-02T12:47:48;10.50;;;6.85;;
20397;SDS011;10358;49.590;11.030;2024-03-02T12:50:14;11.55;;;7.10;;
20397;SDS011;10358;49.590;11.030;2024-03-02T12:52:40;13.55;;;7.32;;
20397;SDS011;10358;49.590;11.030;2024-03-02T12:55:05;12.13;;;7.30;;
20397;SDS011;10358;49.590;11.030;2024-03-02T12:57:32;10.68;;;7.13;;
20397;SDS011;10358;49.590;11.030;2024-03-02T13:00:02;11.18;;;6.93;;
20397;SDS011;10358;49.590;11.030;2024-03-02T13:02:34;14.25;;;8.30;;
20397;SDS011;10358;49.590;11.030;2024-03-02T13:05:01;13.98;;;8.73;;
20397;SDS011;10358;49.590;11.030;2024-03-02T13:07:30;17.63;;;8.63;;
20397;SDS011;10358;49.590;11.030;2024-03-02T13:09:56;12.70;;;8.27;;
20397;SDS011;10358;49.590;11.030;2024-03-02T13:12:22;14.15;;;8.25;;
20397;SDS011;10358;49.590;11.030;2024-03-02T13:14:49;14.30;;;8.45;;
20397;SDS011;10358;49.590;11.030;2024-03-02T13:17:18;16.23;;;9.35;;
20397;SDS011;10358;49.590;11.030;2024-03-02T13:19:51;18.10;;;9.27;;
20397;SDS011;10358;49.590;11.030;2024-03-02T13:22:20;15.90;;;8.80;;
20397;SDS011;10358;49.590;11.030;2024-03-02T13:24:46;13.23;;;8.48;;
20397;SDS011;10358;49.590;11.030;2024-03-02T13:27:12;14.35;;;8.20;;
20397;SDS011;10358;49.590;11.030;2024-03-02T13:29:38;13.23;;;8.07;;
20397;SDS011;10358;49.590;11.030;2024-03-02T13:32:05;12.90;;;8.48;;
20397;SDS011;10358;49.590;11.030;2024-03-02T13:34:31;16.90;;;9.88;;
20397;SDS011;10358;49.590;11.030;2024-03-02T13:36:58;14.77;;;9.35;;
20397;SDS011;10358;49.590;11.030;2024-03-02T13:39:26;16.48;;;9.63;;
20397;SDS011;10358;49.590;11.030;2024-03-02T13:41:55;15.85;;;9.55;;
20397;SDS011;10358;49.590;11.030;2024-03-02T13:44:28;16.20;;;9.48;;
20397;SDS011;10358;49.590;11.030;2024-03-02T13:46:54;16.50;;;8.95;;
20397;SDS011;10358;49.590;11.030;2024-03-02T13:49:19;14.57;;;8.40;;
20397;SDS011;10358;49.590;11.030;2024-03-02T13:51:45;13.05;;;8.40;;
20397;SDS011;10358;49.590;11.030;2024-03-02T13:54:10;13.32;;;8.43;;
20397;SDS011;10358;49.590;11.030;2024-03-02T13:56:36;11.63;;;7.45;;
20397;SDS011;10358;49.590;11.030;2024-03-02T13:59:04;13.18;;;8.27;;
20397;SDS011;10358;49.590;11.030;2024-03-02T14:01:30;12.38;;;7.57;;
20397;SDS011;10358;49.590;11.030;2024-03-02T14:03:57;9.57;;;6.55;;
20397;SDS011;10358;49.590;11.030;2024-03-02T14:06:24;10.02;;;6.97;;
20397;SDS011;10358;49.590;11.030;2024-03-02T14:08:52;12.48;;;7.43;;
20397;SDS011;10358;49.590;11.030;2024-03-02T14:11:17;11.50;;;7.07;;
20397;SDS011;10358;49.590;11.030;2024-03-02T14:13:44;9.18;;;6.10;;
20397;SDS011;10358;49.590;11.030;2024-03-02T14:16:14;10.75;;;6.72;;
20397;SDS011;10358;49.590;11.030;2024-03-02T14:18:40;9.27;;;5.90;;
20397;SDS011;10358;49.590;11.030;2024-03-02T14:21:07;10.65;;;6.65;;
20397;SDS011;10358;49.590;11.030;2024-03-02T14:23:33;11.15;;;7.10;;